.
WxDataArchive / Data Records for 2016-06-13
2016-06-12 June 2016 2016-06-14

Data Records for Monday, 13 June 2016

Time	Temp	Chill	HIndex	Humid	Dewpt	 Wind 	HiWind	WindDir	Rain 	Barom
-----	----	-----	------	-----	-----	------	------	-------	-----	-----
00:00	64.5	64.5	64.5	61	50.7	0	2	292	0.00	30.037 
00:05	64.3	64.3	64.3	61	50.6	0	1	292	0.00	30.037 
00:10	64.2	64.2	64.2	62	50.9	0	2	292	0.00	30.037 
00:15	64.0	64.0	64.0	62	50.7	0	1	292	0.00	30.032 
00:20	63.7	63.7	63.7	62	50.4	0	1	292	0.00	30.032 
00:25	63.5	63.5	63.5	63	50.7	0	1	292	0.00	30.032 
00:30	63.2	63.2	63.2	64	50.8	0	1	292	0.00	30.033 
00:35	63.1	63.1	63.1	64	50.7	0	1	292	0.00	30.033 
00:40	62.7	62.7	62.7	65	50.8	0	1	292	0.00	30.033 
00:45	62.4	62.4	62.4	65	50.5	0	1	292	0.00	30.032 
00:50	62.3	62.3	62.3	66	50.8	0	1	292	0.00	30.032 
00:55	62.1	62.1	62.1	66	50.6	0	1	292	0.00	30.032 
01:00	61.8	61.8	61.8	65	49.9	0	1	292	0.00	30.026 
01:05	61.6	61.6	61.6	65	49.7	0	1	292	0.00	30.026 
01:10	61.5	61.5	61.5	65	49.6	0	1	292	0.00	30.026 
01:15	61.3	61.3	61.3	64	49.0	0	4	292	0.00	30.019 
01:20	61.2	61.2	61.2	64	48.9	0	2	292	0.00	30.019 
01:25	61.0	61.0	61.0	64	48.7	0	2	292	0.00	30.019 
01:30	60.9	60.9	60.9	64	48.6	0	1	292	0.00	30.024 
01:35	60.5	60.5	60.5	64	48.3	0	1	292	0.00	30.024 
01:40	60.4	60.4	60.4	64	48.2	0	2	292	0.00	30.024 
01:45	60.2	60.2	60.2	64	48.0	0	1	292	0.00	30.021 
01:50	60.1	60.1	60.1	64	47.9	0	2	292	0.00	30.021 
01:55	60.1	60.1	60.1	64	47.9	0	1	292	0.00	30.021 
02:00	59.9	59.9	59.9	64	47.7	0	3	292	0.00	30.020 
02:05	59.8	59.8	59.8	65	48.0	0	3	68	0.00	30.020 
02:10	59.6	59.6	59.6	65	47.8	0	1	68	0.00	30.020 
02:15	59.6	59.6	59.6	66	48.2	0	2	68	0.00	30.020 
02:20	59.6	59.6	59.6	67	48.6	0	1	68	0.00	30.020 
02:25	59.5	59.5	59.5	68	48.9	0	1	68	0.00	30.020 
02:30	59.5	59.5	59.5	69	49.3	0	1	68	0.00	30.019 
02:35	59.3	59.3	59.3	70	49.5	0	1	68	0.00	30.019 
02:40	59.2	59.2	59.2	71	49.8	0	1	68	0.00	30.019 
02:45	59.0	59.0	59.0	71	49.6	0	2	68	0.00	30.021 
02:50	58.9	58.9	58.9	72	49.9	0	0	---	0.00	30.021 
02:55	58.7	58.7	58.7	73	50.1	0	0	---	0.00	30.021 
03:00	58.6	58.6	58.6	73	50.0	0	0	---	0.00	30.024 
03:05	58.4	58.4	58.4	74	50.1	0	0	---	0.00	30.024 
03:10	58.1	58.1	58.1	75	50.2	0	0	---	0.00	30.024 
03:15	58.0	58.0	58.0	76	50.5	0	1	68	0.00	30.022 
03:20	57.8	57.8	57.8	77	50.6	0	0	---	0.00	30.022 
03:25	57.6	57.6	57.6	77	50.4	0	0	---	0.00	30.022 
03:30	57.6	57.6	57.6	77	50.4	0	0	---	0.00	30.028 
03:35	57.3	57.3	57.3	77	50.1	0	0	---	0.00	30.028 
03:40	57.2	57.2	57.2	77	50.1	0	0	---	0.00	30.028 
03:45	57.0	57.0	57.0	77	49.9	0	0	---	0.00	30.036 
03:50	56.9	56.9	56.9	78	50.1	0	0	---	0.00	30.036 
03:55	56.6	56.6	56.6	79	50.2	0	1	68	0.00	30.036 
04:00	56.5	56.5	56.5	80	50.4	0	1	68	0.00	30.036 
04:05	56.6	56.6	56.6	79	50.2	0	1	68	0.00	30.036 
04:10	56.7	56.7	56.7	78	49.9	0	1	68	0.00	30.036 
04:15	56.9	56.9	56.9	77	49.8	0	1	68	0.00	30.040 
04:20	57.0	57.0	57.0	76	49.5	0	1	68	0.00	30.040 
04:25	57.2	57.2	57.2	75	49.3	0	1	68	0.00	30.040 
04:30	57.2	57.2	57.2	75	49.3	0	1	68	0.00	30.038 
04:35	57.2	57.2	57.2	75	49.3	0	1	68	0.00	30.038 
04:40	57.0	57.0	57.0	75	49.2	0	1	68	0.00	30.038 
04:45	57.0	57.0	57.0	75	49.2	0	1	68	0.00	30.041 
04:50	57.0	57.0	57.0	75	49.2	0	1	68	0.00	30.041 
04:55	56.9	56.9	56.9	75	49.1	0	1	68	0.00	30.041 
05:00	56.7	56.7	56.7	75	48.9	0	1	68	0.00	30.044 
05:05	56.6	56.6	56.6	75	48.8	0	1	68	0.00	30.044 
05:10	56.5	56.5	56.5	75	48.7	0	2	68	0.00	30.044 
05:15	56.5	56.5	56.5	75	48.7	0	1	68	0.00	30.054 
05:20	56.3	56.3	56.3	76	48.8	0	1	68	0.00	30.054 
05:25	56.3	56.3	56.3	76	48.8	0	1	68	0.00	30.054 
05:30	56.2	56.2	56.2	76	48.7	0	1	68	0.00	30.055 
05:35	56.0	56.0	56.0	76	48.5	0	1	68	0.00	30.055 
05:40	55.9	55.9	55.9	76	48.4	0	1	68	0.00	30.055 
05:45	55.9	55.9	55.9	76	48.4	0	1	68	0.00	30.047 
05:50	55.7	55.7	55.7	76	48.3	0	1	68	0.00	30.047 
05:55	55.7	55.7	55.7	76	48.3	0	3	68	0.00	30.047 
06:00	55.6	55.6	55.6	76	48.2	0	2	68	0.00	30.039 
06:05	55.6	55.6	55.6	76	48.2	0	2	68	0.00	30.039 
06:10	55.4	55.4	55.4	76	48.0	0	2	68	0.00	30.039 
06:15	55.4	55.4	55.4	77	48.3	1	4	68	0.00	30.028 
06:20	55.4	55.4	55.4	76	48.0	1	4	90	0.00	30.028 
06:25	55.4	55.4	55.4	76	48.0	1	5	90	0.00	30.028 
06:30	55.4	55.4	55.4	76	48.0	1	4	90	0.00	30.024 
06:35	55.4	55.4	55.4	76	48.0	1	3	90	0.00	30.024 
06:40	55.4	55.4	55.4	76	48.0	0	2	90	0.00	30.024 
06:45	55.4	55.4	55.4	76	48.0	0	2	90	0.00	30.037 
06:50	55.6	55.6	55.6	76	48.2	0	3	90	0.00	30.037 
06:55	55.7	55.7	55.7	75	47.9	0	1	90	0.00	30.037 
07:00	56.0	56.0	56.0	75	48.2	0	1	90	0.00	30.035 
07:05	56.2	56.2	56.2	74	48.0	0	1	90	0.00	30.035 
07:10	56.5	56.5	56.5	73	47.9	0	2	90	0.00	30.035 
07:15	56.7	56.7	56.7	73	48.1	0	3	90	0.00	30.052 
07:20	57.0	57.0	57.0	73	48.4	0	1	90	0.00	30.052 
07:25	57.2	57.2	57.2	73	48.6	0	1	90	0.00	30.052 
07:30	57.2	57.2	57.2	72	48.3	0	1	90	0.00	30.058 
07:35	57.3	57.3	57.3	72	48.3	0	0	---	0.00	30.058 
07:40	57.5	57.5	57.5	73	48.9	0	0	---	0.00	30.058 
07:45	57.8	57.8	57.8	72	48.8	0	1	90	0.00	30.061 
07:50	58.3	58.3	58.3	71	48.9	0	1	90	0.00	30.061 
07:55	58.9	58.9	58.9	70	49.1	0	0	---	0.00	30.061 
08:00	59.6	59.6	59.6	69	49.4	0	1	90	0.00	30.056 
08:05	60.7	60.7	60.7	66	49.3	0	2	90	0.00	30.056 
08:10	62.0	62.0	62.0	63	49.3	0	1	90	0.00	30.056 
08:15	62.9	62.9	62.9	61	49.2	0	2	90	0.00	30.063 
08:20	63.5	63.5	63.5	60	49.4	1	3	90	0.00	30.063 
08:25	64.0	64.0	64.0	59	49.4	0	2	90	0.00	30.063 
08:30	64.8	64.8	64.8	58	49.7	0	2	90	0.00	30.068 
08:35	65.2	65.2	65.2	57	49.6	1	5	90	0.00	30.068 
08:40	65.5	65.5	65.5	56	49.4	0	2	90	0.00	30.068 
08:45	65.6	65.6	65.6	55	49.0	1	5	90	0.00	30.067 
08:50	66.0	66.0	66.0	54	48.9	0	2	90	0.00	30.067 
08:55	66.3	66.3	66.3	54	49.1	1	4	45	0.00	30.067 
09:00	65.8	65.8	65.8	54	48.7	2	5	90	0.00	30.070 
09:05	65.5	65.5	65.5	54	48.4	2	4	90	0.00	30.070 
09:10	65.3	65.3	65.3	55	48.7	1	5	68	0.00	30.070 
09:15	65.8	65.8	65.8	55	49.2	1	2	68	0.00	30.071 
09:20	66.0	66.0	66.0	53	48.4	2	4	68	0.00	30.071 
09:25	66.4	66.4	66.4	52	48.2	1	3	90	0.00	30.071 
09:30	67.1	67.1	67.1	50	47.8	1	4	90	0.00	30.069 
09:35	66.9	66.9	66.9	51	48.2	2	5	68	0.00	30.069 
09:40	66.8	66.8	66.8	51	48.1	2	5	68	0.00	30.069 
09:45	66.9	66.9	66.9	51	48.2	1	4	112	0.00	30.068 
09:50	67.8	67.8	67.8	48	47.4	0	3	112	0.00	30.068 
09:55	68.4	68.4	68.4	48	47.9	1	4	112	0.00	30.068 
10:00	69.1	69.1	69.1	46	47.4	0	4	135	0.00	30.059 
10:05	69.9	69.9	69.9	46	48.2	0	2	135	0.00	30.059 
10:10	70.8	70.8	70.8	45	48.4	0	2	202	0.00	30.059 
10:15	71.3	71.3	71.3	43	47.6	1	3	135	0.00	30.054 
10:20	71.8	71.8	71.8	43	48.1	0	1	112	0.00	30.054 
10:25	72.1	72.1	72.1	42	47.7	0	2	112	0.00	30.054 
10:30	72.5	72.5	72.5	40	46.8	0	4	90	0.00	30.052 
10:35	72.7	72.7	72.7	39	46.3	1	3	112	0.00	30.052 
10:40	72.7	72.7	72.7	40	47.0	0	3	112	0.00	30.052 
10:45	72.7	72.7	72.7	40	47.0	1	3	112	0.00	30.047 
10:50	73.0	73.0	73.0	39	46.6	0	2	68	0.00	30.047 
10:55	73.2	73.2	73.2	40	47.4	1	4	68	0.00	30.047 
11:00	72.7	72.7	72.7	40	47.0	1	5	68	0.00	30.041 
11:05	73.0	73.0	73.0	39	46.6	1	5	135	0.00	30.041 
11:10	73.5	73.5	73.5	39	47.0	0	2	135	0.00	30.041 
11:15	73.9	73.9	73.9	37	46.0	1	3	135	0.00	30.038 
11:20	74.2	74.2	74.2	40	48.3	0	1	135	0.00	30.038 
11:25	74.4	74.4	74.4	39	47.8	0	3	135	0.00	30.038 
11:30	74.9	74.9	74.9	38	47.6	1	4	135	0.00	30.038 
11:35	75.1	75.1	77.3	35	45.6	0	2	90	0.00	30.038 
11:40	75.4	75.4	77.4	36	46.6	0	2	90	0.00	30.038 
11:45	75.3	75.3	77.4	36	46.5	2	5	90	0.00	30.031 
11:50	75.1	75.1	77.4	37	47.0	1	3	90	0.00	30.031 
11:55	75.4	75.4	77.6	39	48.7	0	2	90	0.00	30.031 
12:00	75.8	75.8	77.6	37	47.7	1	5	90	0.00	30.022 
12:05	76.3	76.3	77.7	35	46.6	0	1	112	0.00	30.022 
12:10	76.7	76.7	77.8	34	46.2	0	1	112	0.00	30.022 
12:15	76.7	76.7	77.7	33	45.4	0	3	112	0.00	30.035 
12:20	77.0	77.0	78.0	35	47.2	0	2	112	0.00	30.035 
12:25	77.4	77.4	78.5	41	51.8	0	1	112	0.00	30.035 
12:30	77.4	77.4	78.1	34	46.8	0	1	112	0.00	30.020 
12:35	77.6	77.6	78.2	34	47.0	0	1	112	0.00	30.020 
12:40	78.1	78.1	78.3	32	45.8	1	4	112	0.00	30.020 
12:45	78.3	78.3	78.6	35	48.4	0	2	112	0.00	30.005 
12:50	78.3	78.3	78.3	31	45.2	1	2	112	0.00	30.005 
12:55	78.1	78.1	78.2	31	45.0	0	2	112	0.00	30.005 
13:00	77.9	77.9	78.5	37	49.5	0	1	112	0.00	29.992 
13:05	78.1	78.1	78.2	31	45.0	0	1	112	0.00	29.992 
13:10	78.3	78.3	78.3	31	45.2	0	4	112	0.00	29.992 
13:15	78.6	78.6	78.5	31	45.4	1	3	112	0.00	29.988 
13:20	78.8	78.8	78.5	30	44.7	0	3	112	0.00	29.988 
13:25	79.0	79.0	78.9	34	48.2	1	3	112	0.00	29.988 
13:30	79.0	79.0	78.9	34	48.2	0	2	112	0.00	29.984 
13:35	79.6	79.6	79.3	35	49.5	0	1	112	0.00	29.984 
13:40	80.1	80.1	79.2	30	45.8	0	1	112	0.00	29.984 
13:45	80.5	80.5	79.5	30	46.2	0	2	112	0.00	29.986 
13:50	80.5	80.5	79.4	29	45.3	0	2	112	0.00	29.986 
13:55	80.3	80.3	79.2	28	44.2	0	2	112	0.00	29.986 
14:00	80.1	80.1	79.3	31	46.7	0	2	112	0.00	29.979 
14:05	80.5	80.5	79.4	29	45.3	0	3	112	0.00	29.979 
14:10	80.7	80.7	79.4	27	43.6	0	3	112	0.00	29.979 
14:15	81.1	81.1	79.7	27	43.9	0	1	112	0.00	29.976 
14:20	81.2	81.2	79.8	28	45.0	0	2	112	0.00	29.976 
14:25	81.2	81.2	79.9	29	45.9	0	1	112	0.00	29.976 
14:30	81.1	81.1	79.7	28	44.9	0	1	112	0.00	29.973 
14:35	80.9	80.9	79.6	28	44.7	1	3	112	0.00	29.973 
14:40	80.3	80.3	79.2	28	44.2	1	3	112	0.00	29.973 
14:45	80.7	80.7	79.4	27	43.6	0	3	45	0.00	29.959 
14:50	80.7	80.7	79.4	27	43.6	0	3	45	0.00	29.959 
14:55	80.7	80.7	79.5	28	44.5	0	2	45	0.00	29.959 
15:00	81.1	81.1	79.7	28	44.9	0	1	45	0.00	29.952 
15:05	81.6	81.6	80.1	28	45.3	0	2	45	0.00	29.952 
15:10	82.2	82.2	80.5	28	45.8	1	3	45	0.00	29.952 
15:15	82.4	82.4	80.6	28	46.0	0	3	45	0.00	29.948 
15:20	82.8	82.8	80.9	28	46.3	0	1	45	0.00	29.948 
15:25	83.2	83.2	81.0	26	44.7	0	1	45	0.00	29.948 
15:30	83.4	83.4	81.1	24	42.8	0	2	45	0.00	29.940 
15:35	83.4	83.4	81.2	26	44.9	0	1	45	0.00	29.940 
15:40	83.0	83.0	80.8	25	43.5	0	1	45	0.00	29.940 
15:45	82.6	82.6	80.7	27	45.2	1	3	68	0.00	29.937 
15:50	82.8	82.8	80.8	27	45.4	0	3	68	0.00	29.937 
15:55	82.6	82.6	80.8	28	46.2	0	2	0	0.00	29.937 
16:00	82.4	82.4	80.5	26	44.0	0	2	0	0.00	29.939 
16:05	82.8	82.8	80.8	26	44.4	0	1	0	0.00	29.939 
16:10	83.6	83.6	81.4	27	46.1	0	2	0	0.00	29.939 
16:15	84.0	84.0	81.6	25	44.4	0	1	0	0.00	29.925 
16:20	84.0	84.0	81.6	25	44.4	1	5	22	0.00	29.925 
16:25	83.8	83.8	81.4	25	44.2	1	2	90	0.00	29.925 
16:30	83.6	83.6	81.3	25	44.0	0	2	90	0.00	29.912 
16:35	83.6	83.6	81.5	28	47.0	0	1	90	0.00	29.912 
16:40	83.6	83.6	81.3	26	45.1	0	2	90	0.00	29.912 
16:45	83.4	83.4	81.1	24	42.8	1	3	90	0.00	29.910 
16:50	83.2	83.2	81.0	25	43.7	0	2	90	0.00	29.910 
16:55	83.0	83.0	80.8	25	43.5	1	2	90	0.00	29.910 
17:00	83.2	83.2	81.0	25	43.7	1	3	90	0.00	29.905 
17:05	83.2	83.2	81.2	28	46.7	0	1	90	0.00	29.905 
17:10	83.4	83.4	81.2	26	44.9	0	2	90	0.00	29.905 
17:15	83.6	83.6	81.2	24	43.0	0	1	90	0.00	29.907 
17:20	83.8	83.8	81.4	25	44.2	1	3	90	0.00	29.907 
17:25	84.0	84.0	81.6	25	44.4	0	1	315	0.00	29.907 
17:30	84.3	84.3	81.7	24	43.5	0	1	315	0.00	29.905 
17:35	84.5	84.5	81.9	24	43.7	0	1	315	0.00	29.905 
17:40	84.3	84.3	81.7	24	43.5	0	1	315	0.00	29.905 
17:45	84.1	84.1	81.7	25	44.4	0	2	315	0.00	29.896 
17:50	84.0	84.0	81.5	24	43.3	0	1	315	0.00	29.896 
17:55	83.8	83.8	81.4	25	44.2	0	1	315	0.00	29.896 
18:00	83.6	83.6	81.5	28	47.0	0	1	315	0.00	29.891 
18:05	83.6	83.6	81.3	25	44.0	0	1	315	0.00	29.891 
18:10	83.4	83.4	81.1	25	43.9	0	1	315	0.00	29.891 
18:15	83.2	83.2	80.8	23	41.5	0	2	315	0.00	29.895 
18:20	83.0	83.0	80.9	26	44.6	0	1	315	0.00	29.895 
18:25	82.6	82.6	80.5	25	43.2	0	2	315	0.00	29.895 
18:30	82.6	82.6	80.7	27	45.2	0	1	315	0.00	29.891 
18:35	82.4	82.4	80.4	25	43.0	0	1	315	0.00	29.891 
18:40	82.4	82.4	80.4	25	43.0	0	1	315	0.00	29.891 
18:45	82.4	82.4	80.4	25	43.0	0	1	315	0.00	29.894 
18:50	82.6	82.6	80.5	25	43.2	0	1	315	0.00	29.894 
18:55	82.6	82.6	80.5	24	42.1	0	1	315	0.00	29.894 
19:00	82.8	82.8	80.7	25	43.4	0	0	---	0.00	29.882 
19:05	82.8	82.8	80.8	26	44.4	0	1	315	0.00	29.882 
19:10	82.6	82.6	80.5	25	43.2	0	0	---	0.00	29.882 
19:15	82.6	82.6	80.6	26	44.2	0	1	315	0.00	29.880 
19:20	82.4	82.4	80.3	24	42.0	0	1	315	0.00	29.880 
19:25	82.4	82.4	80.3	23	40.9	0	0	---	0.00	29.880 
19:30	82.4	82.4	80.3	24	42.0	0	1	315	0.00	29.878 
19:35	82.4	82.4	80.4	25	43.0	0	0	---	0.00	29.878 
19:40	82.2	82.2	80.1	22	39.5	0	1	315	0.00	29.878 
19:45	82.0	82.0	80.1	25	42.7	0	1	315	0.00	29.871 
19:50	82.0	82.0	80.1	25	42.7	0	0	---	0.00	29.871 
19:55	81.8	81.8	80.0	25	42.5	0	1	315	0.00	29.871 
20:00	81.8	81.8	80.1	26	43.5	0	0	---	0.00	29.869 
20:05	81.6	81.6	79.9	26	43.4	0	0	---	0.00	29.869 
20:10	81.6	81.6	79.9	26	43.4	0	0	---	0.00	29.869 
20:15	81.4	81.4	79.8	26	43.2	0	0	---	0.00	29.863 
20:20	81.2	81.2	79.7	26	43.0	0	0	---	0.00	29.863 
20:25	81.1	81.1	79.7	28	44.9	0	0	---	0.00	29.863 
20:30	80.9	80.9	79.9	32	48.2	0	0	---	0.00	29.859 
20:35	80.5	80.5	79.4	29	45.3	0	0	---	0.00	29.859 
20:40	80.1	80.1	79.1	27	43.1	0	0	---	0.00	29.859 
20:45	79.9	79.9	79.3	32	47.4	0	0	---	0.00	29.857 
20:50	79.6	79.6	79.2	34	48.7	0	0	---	0.00	29.857 
20:55	79.2	79.2	79.0	34	48.4	0	0	---	0.00	29.857 
21:00	78.6	78.6	78.6	33	47.1	0	0	---	0.00	29.857 
21:05	78.1	78.1	78.3	32	45.8	0	0	---	0.00	29.857 
21:10	77.7	77.7	78.2	33	46.3	0	0	---	0.00	29.857 
21:15	77.2	77.2	78.1	36	48.2	0	0	---	0.00	29.848 
21:20	76.7	76.7	77.8	34	46.2	0	0	---	0.00	29.848 
21:25	76.3	76.3	77.7	35	46.6	0	0	---	0.00	29.848 
21:30	75.8	75.8	77.6	36	46.9	0	0	---	0.00	29.848 
21:35	75.4	75.4	77.5	37	47.3	0	0	---	0.00	29.848 
21:40	75.1	75.1	77.4	38	47.7	0	0	---	0.00	29.848 
21:45	74.7	74.7	74.7	39	48.1	0	0	---	0.00	29.849 
21:50	74.4	74.4	74.4	41	49.1	0	0	---	0.00	29.849 
21:55	74.0	74.0	74.0	41	48.8	0	0	---	0.00	29.849 
22:00	73.9	73.9	73.9	43	50.0	0	0	---	0.00	29.860 
22:05	73.5	73.5	73.5	43	49.6	0	0	---	0.00	29.860 
22:10	73.2	73.2	73.2	44	50.0	0	0	---	0.00	29.860 
22:15	72.8	72.8	72.8	46	50.8	0	0	---	0.00	29.861 
22:20	72.7	72.7	72.7	48	51.9	0	0	---	0.00	29.861 
22:25	72.3	72.3	72.3	49	52.1	0	0	---	0.00	29.861 
22:30	72.1	72.1	72.1	50	52.4	0	0	---	0.00	29.871 
22:35	72.1	72.1	72.1	53	54.0	0	0	---	0.00	29.871 
22:40	72.1	72.1	72.1	54	54.5	0	0	---	0.00	29.871 
22:45	72.1	72.1	72.1	56	55.5	0	0	---	0.00	29.873 
22:50	72.1	72.1	72.1	56	55.5	0	0	---	0.00	29.873 
22:55	72.1	72.1	72.1	53	54.0	0	0	---	0.00	29.873 
23:00	72.3	72.3	72.3	46	50.3	0	1	315	0.00	29.872 
23:05	72.8	72.8	72.8	42	48.4	0	1	315	0.00	29.872 
23:10	73.5	73.5	73.5	41	48.3	0	1	315	0.00	29.872 
23:15	74.0	74.0	74.0	40	48.1	0	1	315	0.00	29.869 
23:20	74.2	74.2	74.2	41	49.0	0	2	0	0.00	29.869 
23:25	74.4	74.4	74.4	41	49.1	0	1	0	0.00	29.869 
23:30	74.4	74.4	74.4	41	49.1	0	1	0	0.00	29.868 
23:35	74.4	74.4	74.4	41	49.1	0	1	0	0.00	29.868 
23:40	74.4	74.4	74.4	41	49.1	0	2	0	0.00	29.868 
23:45	74.4	74.4	74.4	42	49.8	0	2	0	0.00	29.870 
23:50	74.4	74.4	74.4	42	49.8	0	1	0	0.00	29.870 
23:55	74.2	74.2	74.2	41	49.0	0	1	0	0.00	29.870 

CoCoRaHS
IN-AL-39
A2 Web Hosting
Creative Commons License
GoDaddy
search engine by freefind advanced

loaded 2018-11-13 01:47:08 • last modified 2010-11-18 10:43:29
Privacy PolicyDisclaimer
• wx.awcolley.com is powered by PmWiki v.2002016 •
• all content (unless otherwise noted) © 2018 A W Colley